createdAt,value
2022-08-05T00:01:53.209Z,2.30
2022-08-05T00:04:56.051Z,2.38
2022-08-05T00:08:00.621Z,2.60
2022-08-05T00:11:20.289Z,2.30
2022-08-05T00:14:29.277Z,2.22
2022-08-05T00:17:33.715Z,2.28
2022-08-05T00:20:35.971Z,2.30
2022-08-05T00:23:45.938Z,2.30
2022-08-05T00:26:55.165Z,2.37
2022-08-05T00:29:57.397Z,2.38
2022-08-05T00:33:02.609Z,2.50
2022-08-05T00:36:16.530Z,2.63
2022-08-05T00:39:27.424Z,2.45
2022-08-05T00:42:42.241Z,2.90
2022-08-05T00:45:50.444Z,2.60
2022-08-05T00:48:54.748Z,2.50
2022-08-05T00:51:59.873Z,2.60
2022-08-05T00:55:02.078Z,2.30
2022-08-05T00:58:05.348Z,2.40
2022-08-05T01:01:08.829Z,2.30
2022-08-05T01:04:14.313Z,2.65
2022-08-05T01:07:18.107Z,2.22
2022-08-05T01:10:25.741Z,2.60
2022-08-05T01:13:59.142Z,2.10
2022-08-05T01:17:40.296Z,2.45
2022-08-05T01:21:01.638Z,2.42
2022-08-05T01:24:24.655Z,2.40
2022-08-05T01:28:10.237Z,2.22
2022-08-05T01:31:27.804Z,2.30
2022-08-05T01:35:01.345Z,2.30
2022-08-05T01:38:05.011Z,2.53
2022-08-05T01:41:08.154Z,2.22
2022-08-05T01:44:11.407Z,2.45
2022-08-05T01:47:17.842Z,2.20
2022-08-05T01:50:29.675Z,2.88
2022-08-05T01:53:57.086Z,2.38
2022-08-05T01:58:11.775Z,2.30
2022-08-05T02:00:21.214Z,2.50
2022-08-05T02:03:44.991Z,2.67
2022-08-05T02:06:47.014Z,2.03
2022-08-05T02:09:51.094Z,2.58
2022-08-05T02:13:16.803Z,2.20
2022-08-05T02:16:27.813Z,2.60
2022-08-05T02:19:47.205Z,2.67
2022-08-05T02:22:58.356Z,2.63
2022-08-05T02:26:04.880Z,2.33
2022-08-05T02:29:21.332Z,2.55
2022-08-05T02:32:29.223Z,2.78
2022-08-05T02:35:38.557Z,2.97
2022-08-05T02:38:56.081Z,2.75
2022-08-05T02:42:01.654Z,2.60
2022-08-05T02:45:05.144Z,2.72
2022-08-05T02:48:12.595Z,2.88
2022-08-05T02:51:16.291Z,2.67
2022-08-05T02:54:36.394Z,2.60
2022-08-05T02:58:10.788Z,2.70
2022-08-05T03:01:03.387Z,2.78
2022-08-05T03:04:14.120Z,2.53
2022-08-05T03:07:59.467Z,2.63
2022-08-05T03:11:53.234Z,2.70
2022-08-05T03:14:08.009Z,2.42
2022-08-05T03:17:10.154Z,2.70
2022-08-05T03:20:13.453Z,2.30
2022-08-05T03:23:16.158Z,2.37
2022-08-05T03:26:31.569Z,2.55
2022-08-05T03:29:45.378Z,2.78
2022-08-05T03:32:57.285Z,2.50
2022-08-05T03:35:59.956Z,2.45
2022-08-05T03:39:08.431Z,2.50
2022-08-05T03:42:21.913Z,2.30
2022-08-05T03:45:29.728Z,2.15
2022-08-05T03:48:51.622Z,2.42
2022-08-05T03:52:37.529Z,2.42
2022-08-05T03:56:04.663Z,2.03
2022-08-05T03:58:59.898Z,2.38
2022-08-05T04:02:03.186Z,2.00
2022-08-05T04:05:09.652Z,2.60
2022-08-05T04:08:30.144Z,2.30
2022-08-05T04:11:47.692Z,2.57
2022-08-05T04:14:54.742Z,2.20
2022-08-05T04:18:09.525Z,2.10
2022-08-05T04:21:11.859Z,2.35
2022-08-05T04:24:18.687Z,2.25
2022-08-05T04:27:32.988Z,2.20
2022-08-05T04:30:45.209Z,2.17
2022-08-05T04:34:18.904Z,2.33
2022-08-05T04:37:09.459Z,2.20
2022-08-05T04:40:11.775Z,2.10
2022-08-05T04:43:16.554Z,2.03
2022-08-05T04:46:28.423Z,2.35
2022-08-05T04:49:39.301Z,2.05
2022-08-05T04:52:52.931Z,1.92
2022-08-05T04:56:14.576Z,2.35
2022-08-05T04:59:24.261Z,1.83
2022-08-05T05:02:41.818Z,2.25
2022-08-05T05:06:35.868Z,2.50
2022-08-05T05:09:07.181Z,2.20
2022-08-05T05:12:09.268Z,2.30
2022-08-05T05:15:13.688Z,2.03
2022-08-05T05:18:31.645Z,1.90
2022-08-05T05:21:35.932Z,1.80
2022-08-05T05:24:57.278Z,1.67
2022-08-05T05:28:01.253Z,2.17
2022-08-05T05:31:03.224Z,2.27
2022-08-05T05:34:08.963Z,2.00
2022-08-05T05:37:13.144Z,1.80
2022-08-05T05:40:19.805Z,2.20
2022-08-05T05:43:54.181Z,1.95
2022-08-05T05:46:45.056Z,2.00
2022-08-05T05:49:56.561Z,2.30
2022-08-05T05:52:59.071Z,2.00
2022-08-05T05:56:03.298Z,1.90
2022-08-05T05:59:07.372Z,2.10
2022-08-05T06:02:09.824Z,2.17
2022-08-05T06:05:16.668Z,2.03
2022-08-05T06:08:32.422Z,1.90
2022-08-05T06:11:35.351Z,2.35
2022-08-05T06:14:44.907Z,2.33
2022-08-05T06:17:52.796Z,1.93
2022-08-05T06:20:56.720Z,2.10
2022-08-05T06:23:59.916Z,2.38
2022-08-05T06:27:04.274Z,2.70
2022-08-05T06:30:20.184Z,2.00
2022-08-05T06:34:06.109Z,2.00
2022-08-05T06:36:56.897Z,1.90
2022-08-05T06:40:00.333Z,1.98
2022-08-05T06:43:04.706Z,2.22
2022-08-05T06:46:07.524Z,2.05
2022-08-05T06:49:09.672Z,2.07
2022-08-05T06:52:36.718Z,2.33
2022-08-05T06:55:36.715Z,1.95
2022-08-05T06:58:39.173Z,2.40
2022-08-05T07:01:42.509Z,2.30
2022-08-05T07:04:44.576Z,2.20
2022-08-05T07:07:49.053Z,2.60
2022-08-05T07:10:52.729Z,2.20
2022-08-05T07:14:29.337Z,2.00
2022-08-05T07:18:01.905Z,2.13
2022-08-05T07:20:55.487Z,2.20
2022-08-05T07:23:58.120Z,2.00
2022-08-05T07:27:03.586Z,2.20
2022-08-05T07:30:23.785Z,1.98
2022-08-05T07:33:36.477Z,1.98
2022-08-05T07:36:39.569Z,1.87
2022-08-05T07:40:26.064Z,2.10
2022-08-05T07:43:04.853Z,2.50
2022-08-05T07:46:23.502Z,1.95
2022-08-05T07:49:26.855Z,1.88
2022-08-05T07:52:29.391Z,1.90
2022-08-05T07:56:04.867Z,1.70
2022-08-05T07:58:54.923Z,1.92
2022-08-05T08:02:00.108Z,1.63
2022-08-05T08:05:06.039Z,2.05
2022-08-05T08:08:12.455Z,2.10
2022-08-05T08:11:16.011Z,2.40
2022-08-05T08:14:19.175Z,2.83
2022-08-05T08:17:21.863Z,2.33
2022-08-05T08:21:00.069Z,2.25
2022-08-05T08:24:01.846Z,2.00
2022-08-05T08:27:07.115Z,1.90
2022-08-05T08:30:29.839Z,2.28
2022-08-05T08:33:35.928Z,2.38
2022-08-05T08:36:48.949Z,2.30
2022-08-05T08:39:54.684Z,1.70
2022-08-05T08:42:57.091Z,1.70
2022-08-05T08:46:19.748Z,2.00
2022-08-05T08:50:08.856Z,2.38
2022-08-05T08:52:51.696Z,2.40
2022-08-05T08:56:03.767Z,2.10
2022-08-05T08:59:14.844Z,2.25
2022-08-05T09:02:26.712Z,2.20
2022-08-05T09:05:38.605Z,1.83
2022-08-05T09:08:50.955Z,2.28
2022-08-05T09:12:00.191Z,2.17
2022-08-05T09:15:09.274Z,2.20
2022-08-05T09:18:13.427Z,2.30
2022-08-05T09:21:20.904Z,2.00
2022-08-05T09:24:37.708Z,2.33
2022-08-05T09:28:03.899Z,2.27
2022-08-05T09:31:43.177Z,2.00
2022-08-05T09:35:11.648Z,2.50
2022-08-05T09:38:30.926Z,2.05
2022-08-05T09:41:38.983Z,2.28
2022-08-05T09:44:50.714Z,2.40
2022-08-05T09:47:55.994Z,2.30
2022-08-05T09:51:15.236Z,2.88
2022-08-05T09:54:31.317Z,2.33
2022-08-05T09:57:39.436Z,2.53
2022-08-05T10:01:01.958Z,2.53
2022-08-05T10:04:17.365Z,3.13
2022-08-05T10:08:10.391Z,2.67
2022-08-05T10:10:44.386Z,2.38
2022-08-05T10:13:48.375Z,2.15
2022-08-05T10:16:53.483Z,2.30
2022-08-05T10:20:03.865Z,2.03
2022-08-05T10:23:34.062Z,2.45
2022-08-05T10:26:52.207Z,2.30
2022-08-05T10:30:41.388Z,2.30
2022-08-05T10:33:17.349Z,2.33
2022-08-05T10:36:23.628Z,2.42
2022-08-05T10:39:59.492Z,2.63
2022-08-05T10:43:01.338Z,2.40
2022-08-05T10:46:07.080Z,2.45
2022-08-05T10:49:10.511Z,2.70
2022-08-05T10:52:58.463Z,2.22
2022-08-05T10:56:21.052Z,2.70
2022-08-05T11:00:03.223Z,2.58
2022-08-05T11:03:23.410Z,2.60
2022-08-05T11:06:30.802Z,2.70
2022-08-05T11:09:50.407Z,2.53
2022-08-05T11:13:06.868Z,2.40
2022-08-05T11:16:22.300Z,2.70
2022-08-05T11:20:10.334Z,1.98
2022-08-05T11:23:33.745Z,2.77
2022-08-05T11:27:10.587Z,2.25
2022-08-05T11:30:14.285Z,2.33
2022-08-05T11:33:45.951Z,2.53
2022-08-05T11:36:53.066Z,2.80
2022-08-05T11:40:03.684Z,2.40
2022-08-05T11:43:06.958Z,2.50
2022-08-05T11:46:16.138Z,3.00
2022-08-05T11:49:33.791Z,2.45
2022-08-05T11:52:36.347Z,2.50
2022-08-05T11:56:02.775Z,2.47
2022-08-05T11:59:13.872Z,2.50
2022-08-05T12:02:30.600Z,3.03
2022-08-05T12:05:39.831Z,2.88
2022-08-05T12:08:51.270Z,2.40
2022-08-05T12:11:54.243Z,2.70
2022-08-05T12:14:56.892Z,2.42
2022-08-05T12:18:10.251Z,2.65
2022-08-05T12:21:31.884Z,2.60
2022-08-05T12:24:33.910Z,3.00
2022-08-05T12:27:36.302Z,2.80
2022-08-05T12:30:57.302Z,2.67
2022-08-05T12:34:00.357Z,2.75
2022-08-05T12:37:14.037Z,2.85
2022-08-05T12:40:26.802Z,2.70
2022-08-05T12:43:32.287Z,2.57
2022-08-05T12:46:35.943Z,2.55
2022-08-05T12:50:04.221Z,2.80
2022-08-05T12:53:08.123Z,2.40
2022-08-05T12:56:35.349Z,3.03
2022-08-05T13:01:58.386Z,2.60
2022-08-05T13:03:12.338Z,2.60
2022-08-05T13:06:17.766Z,2.83
2022-08-05T13:09:27.886Z,2.45
2022-08-05T13:12:30.812Z,2.92
2022-08-05T13:15:42.160Z,2.87
2022-08-05T13:18:55.064Z,2.67
2022-08-05T13:21:59.809Z,2.85
2022-08-05T13:25:18.635Z,2.83
2022-08-05T13:28:21.901Z,2.90
2022-08-05T13:32:03.674Z,2.80
2022-08-05T13:34:49.039Z,2.75
2022-08-05T13:37:55.797Z,2.90
2022-08-05T13:40:59.868Z,2.65
2022-08-05T13:44:03.584Z,2.67
2022-08-05T13:47:09.008Z,2.80
2022-08-05T13:50:27.911Z,2.50
2022-08-05T13:53:31.149Z,2.50
2022-08-05T13:56:33.401Z,2.78
2022-08-05T13:59:35.829Z,2.92
2022-08-05T14:02:37.801Z,2.60
2022-08-05T14:06:04.635Z,2.80
2022-08-05T14:09:02.161Z,2.95
2022-08-05T14:12:17.803Z,2.80
2022-08-05T14:16:08.520Z,2.67
2022-08-05T14:18:42.695Z,2.23
2022-08-05T14:22:10.085Z,2.42
2022-08-05T14:25:18.979Z,2.78
2022-08-05T14:28:27.103Z,4.32
2022-08-05T14:32:02.459Z,2.80
2022-08-05T14:34:52.366Z,2.80
2022-08-05T14:37:55.649Z,2.70
2022-08-05T14:40:58.453Z,3.00
2022-08-05T14:44:09.497Z,2.92
2022-08-05T14:47:11.947Z,2.72
2022-08-05T14:50:18.976Z,3.13
2022-08-05T14:53:21.497Z,2.50
2022-08-05T14:56:23.986Z,2.60
2022-08-05T14:59:29.463Z,2.55
2022-08-05T15:02:37.291Z,3.03
2022-08-05T15:06:07.591Z,2.70
2022-08-05T15:09:04.806Z,2.85
2022-08-05T15:12:08.887Z,2.55
2022-08-05T15:15:15.440Z,2.80
2022-08-05T15:18:17.851Z,2.85
2022-08-05T15:21:21.012Z,2.70
2022-08-05T15:24:23.173Z,2.50
2022-08-05T15:27:25.408Z,2.78
2022-08-05T15:30:28.824Z,2.70
2022-08-05T15:34:05.214Z,3.13
2022-08-05T15:36:53.014Z,2.50
2022-08-05T15:41:00.736Z,2.40
2022-08-05T15:43:20.176Z,3.10
2022-08-05T15:46:24.641Z,2.80
2022-08-05T15:49:48.151Z,2.75
2022-08-05T15:52:53.303Z,2.83
2022-08-05T15:56:03.907Z,3.00
2022-08-05T15:59:06.945Z,2.60
2022-08-05T16:02:09.826Z,2.70
2022-08-05T16:05:17.224Z,2.60
2022-08-05T16:08:22.643Z,2.70
2022-08-05T16:11:42.470Z,2.80
2022-08-05T16:14:45.352Z,2.78
2022-08-05T16:17:57.407Z,2.80
2022-08-05T16:21:04.365Z,2.70
2022-08-05T16:24:13.015Z,2.63
2022-08-05T16:27:47.254Z,2.72
2022-08-05T16:30:52.912Z,2.60
2022-08-05T16:33:55.844Z,2.80
2022-08-05T16:36:57.857Z,2.55
2022-08-05T16:40:04.945Z,2.60
2022-08-05T16:43:09.373Z,2.40
2022-08-05T16:46:23.436Z,3.05
2022-08-05T16:49:26.704Z,2.75
2022-08-05T16:52:36.696Z,2.95
2022-08-05T16:56:04.393Z,2.93
2022-08-05T16:59:15.701Z,2.60
2022-08-05T17:02:19.205Z,2.72
2022-08-05T17:05:21.229Z,2.90
2022-08-05T17:08:36.397Z,2.97
2022-08-05T17:11:48.423Z,3.00
2022-08-05T17:14:51.518Z,2.30
2022-08-05T17:18:02.231Z,2.85
2022-08-05T17:21:04.542Z,2.50
2022-08-05T17:24:27.967Z,2.90
2022-08-05T17:27:33.939Z,2.60
2022-08-05T17:30:50.831Z,2.75
2022-08-05T17:33:55.637Z,2.97
2022-08-05T17:37:04.580Z,2.67
2022-08-05T17:40:25.041Z,2.70
2022-08-05T17:43:46.586Z,3.00
2022-08-05T17:46:49.032Z,3.10
2022-08-05T17:50:04.168Z,2.70
2022-08-05T17:53:08.704Z,3.10
2022-08-05T17:56:11.701Z,2.90
2022-08-05T17:59:14.458Z,2.80
2022-08-05T18:02:23.361Z,3.20
2022-08-05T18:05:27.889Z,4.40
2022-08-05T18:08:33.860Z,4.65
2022-08-05T18:11:35.901Z,4.00
2022-08-05T18:14:38.335Z,3.63
2022-08-05T18:17:59.598Z,4.63
2022-08-05T18:21:03.259Z,3.58
2022-08-05T18:24:05.609Z,4.00
2022-08-05T18:27:12.334Z,3.83
2022-08-05T18:30:15.210Z,3.97
2022-08-05T18:33:17.241Z,3.70
2022-08-05T18:36:28.011Z,3.85
2022-08-05T18:39:42.045Z,4.72
2022-08-05T18:42:52.446Z,3.97
2022-08-05T18:45:54.582Z,3.73
2022-08-05T18:49:18.150Z,3.92
2022-08-05T18:52:33.744Z,3.90
2022-08-05T18:55:37.747Z,3.80
2022-08-05T18:58:40.168Z,4.50
2022-08-05T19:01:48.211Z,3.93
2022-08-05T19:06:05.895Z,4.25
2022-08-05T19:08:30.332Z,4.95
2022-08-05T19:11:37.195Z,4.07
2022-08-05T19:15:00.535Z,3.55
2022-08-05T19:18:09.559Z,3.67
2022-08-05T19:21:12.845Z,3.90
2022-08-05T19:24:14.785Z,3.47
2022-08-05T19:27:16.816Z,3.63
2022-08-05T19:30:21.913Z,3.65
2022-08-05T19:33:35.406Z,3.60
2022-08-05T19:36:38.608Z,3.63
2022-08-05T19:39:45.485Z,3.60
2022-08-05T19:43:04.694Z,3.28
2022-08-05T19:46:28.957Z,4.70
2022-08-05T19:49:30.251Z,3.07
2022-08-05T19:52:32.586Z,3.20
2022-08-05T19:56:14.686Z,3.78
2022-08-05T19:58:56.640Z,3.60
2022-08-05T20:02:01.619Z,3.42
2022-08-05T20:05:09.459Z,3.30
2022-08-05T20:08:11.944Z,3.38
2022-08-05T20:11:14.054Z,3.60
2022-08-05T20:14:23.527Z,3.70
2022-08-05T20:17:29.372Z,3.30
2022-08-05T20:20:37.157Z,3.50
2022-08-05T20:23:51.174Z,3.83
2022-08-05T20:26:55.304Z,4.07
2022-08-05T20:29:59.271Z,3.80
2022-08-05T20:33:02.225Z,3.60
2022-08-05T20:36:04.288Z,3.67
2022-08-05T20:39:06.548Z,4.05
2022-08-05T20:42:12.407Z,3.78
2022-08-05T20:45:14.769Z,4.07
2022-08-05T20:48:17.648Z,4.88
2022-08-05T20:51:19.660Z,4.27
2022-08-05T20:54:59.591Z,4.50
2022-08-05T20:57:49.235Z,4.40
2022-08-05T21:00:54.516Z,4.25
2022-08-05T21:03:58.837Z,4.25
2022-08-05T21:07:00.858Z,3.97
2022-08-05T21:10:03.378Z,3.70
2022-08-05T21:13:10.250Z,4.47
2022-08-05T21:16:16.525Z,3.30
2022-08-05T21:19:18.633Z,3.53
2022-08-05T21:22:23.509Z,3.27
2022-08-05T21:25:26.256Z,3.05
2022-08-05T21:28:36.104Z,3.30
2022-08-05T21:31:41.340Z,3.20
2022-08-05T21:34:43.896Z,3.08
2022-08-05T21:37:58.313Z,3.00
2022-08-05T21:41:00.449Z,3.05
2022-08-05T21:44:04.767Z,3.10
2022-08-05T21:47:17.276Z,3.15
2022-08-05T21:50:29.587Z,3.10
2022-08-05T21:53:34.057Z,3.33
2022-08-05T21:56:44.467Z,3.17
2022-08-05T22:00:05.993Z,3.05
2022-08-05T22:03:15.281Z,3.65
2022-08-05T22:06:22.892Z,3.05
2022-08-05T22:09:46.044Z,2.70
2022-08-05T22:12:50.893Z,2.92
2022-08-05T22:16:00.482Z,2.92
2022-08-05T22:19:15.088Z,3.00
2022-08-05T22:22:52.560Z,3.10
2022-08-05T22:26:15.010Z,3.10
2022-08-05T22:29:17.507Z,2.50
2022-08-05T22:32:21.079Z,2.47
2022-08-05T22:35:25.173Z,3.55
2022-08-05T22:38:33.449Z,2.50
2022-08-05T22:42:09.564Z,2.70
2022-08-05T22:45:01.867Z,2.60
2022-08-05T22:48:05.380Z,2.75
2022-08-05T22:51:16.084Z,2.65
2022-08-05T22:54:25.462Z,2.53
2022-08-05T22:57:34.148Z,2.63
2022-08-05T23:00:38.483Z,2.80
2022-08-05T23:03:58.264Z,2.80
2022-08-05T23:07:01.905Z,2.80
2022-08-05T23:10:05.254Z,2.55
2022-08-05T23:13:09.781Z,2.67
2022-08-05T23:16:12.087Z,2.40
2022-08-05T23:19:23.752Z,2.40
2022-08-05T23:22:29.723Z,2.67
2022-08-05T23:25:53.157Z,2.45
2022-08-05T23:28:55.734Z,2.43
2022-08-05T23:31:57.925Z,2.80
2022-08-05T23:35:01.373Z,2.33
2022-08-05T23:38:05.742Z,2.40
2022-08-05T23:41:14.099Z,2.80
2022-08-05T23:44:19.802Z,2.30
2022-08-05T23:47:26.964Z,2.75
2022-08-05T23:50:29.157Z,2.55
2022-08-05T23:53:46.545Z,2.60
2022-08-05T23:56:49.035Z,2.40
